KALM/ALM METAR and TAF weather

Enter ICAO airport designator
Station Type Date Time Source
KALM METAR 2018/07/20 14:35 UTC NOAA

KALM 201435Z AUTO 02003KT 10SM CLR 28/08 A3012 RMK AO2


Station Type Date Time Source
KALM Decoded METAR 2018/07/20 14:35 UTC NOAA

Alamogordo-White, NM, United States (KALM) 32-50N 105-59W
Jul 20, 2018 - 10:35 AM EDT / 2018.07.20 1435 UTC
Wind: from the NNE (020 degrees) at 3 MPH (3 KT):0
Visibility: 10 mile(s):0
Sky conditions: clear
Temperature: 82 F (28 C)
Dew Point: 46 F (8 C)
Relative Humidity: 28%
Pressure (altimeter): 30.12 in. Hg (1019 hPa)
ob: KALM 201435Z AUTO 02003KT 10SM CLR 28/08 A3012 RMK AO2
cycle: 14

Station Type Date Time Source
KALM TAF UTC NOAA

Error!


Example: see airport list